TimeAEST,TemperatureF,Dew PointF,Humidity,Sea Level PressureIn,VisibilityMPH,Wind Direction,Wind SpeedMPH,Gust SpeedMPH,PrecipitationIn,Events,Conditions,WindDirDegrees,DateUTC
12:00 AM,72,72,100,29.95,,Calm,Calm,,,,,,2013-05-15 14:00:00
12:00 AM,71.6,71.6,100,29.95,-9999.0,Calm,Calm,-,N/A,,Unknown,0,2013-05-15 14:00:00
12:30 AM,-9999,-9999,N/A,29.95,-9999.0,Calm,Calm,-,N/A,,Unknown,0,2013-05-15 14:30:00
1:00 AM,-9999,-9999,N/A,29.92,-9999.0,Calm,Calm,-,N/A,,Unknown,0,2013-05-15 15:00:00
1:30 AM,-9999,-9999,N/A,29.92,-9999.0,SW,2.3,-,N/A,,Unknown,220,2013-05-15 15:30:00
2:00 AM,-9999,-9999,N/A,29.92,-9999.0,SE,2.3,-,N/A,,Unknown,130,2013-05-15 16:00:00
2:30 AM,-9999,-9999,N/A,29.92,-9999.0,ESE,1.2,-,N/A,,Unknown,110,2013-05-15 16:30:00
3:00 AM,72,,,29.91,,East,4.6,,,,,80,2013-05-15 17:00:00
3:00 AM,-9999,-9999,N/A,29.89,-9999.0,East,4.6,-,N/A,,Unknown,80,2013-05-15 17:00:00
3:30 AM,-9999,-9999,N/A,29.92,-9999.0,Calm,Calm,-,N/A,,Unknown,0,2013-05-15 17:30:00
4:00 AM,-9999,-9999,N/A,29.89,-9999.0,NE,3.5,-,N/A,,Unknown,50,2013-05-15 18:00:00
4:30 AM,-9999,-9999,N/A,29.92,-9999.0,Calm,Calm,-,N/A,,Unknown,0,2013-05-15 18:30:00
5:00 AM,-9999,-9999,N/A,29.92,-9999.0,SSW,5.8,-,N/A,,Unknown,210,2013-05-15 19:00:00
5:30 AM,73.4,73.4,100,29.92,-9999.0,NNE,1.2,-,N/A,,Unknown,20,2013-05-15 19:30:00
6:00 AM,72,,,29.91,,ESE,2.3,,,,,120,2013-05-15 20:00:00
6:00 AM,-9999,-9999,N/A,29.92,-9999.0,ESE,2.3,-,N/A,,Unknown,120,2013-05-15 20:00:00
6:30 AM,73.4,73.4,100,29.92,-9999.0,SE,4.6,-,N/A,,Unknown,140,2013-05-15 20:30:00
7:00 AM,73.4,73.4,100,29.95,-9999.0,SSE,4.6,-,N/A,,Unknown,160,2013-05-15 21:00:00
7:30 AM,73.4,73.4,100,29.95,-9999.0,SE,3.5,-,N/A,,Unknown,130,2013-05-15 21:30:00
8:00 AM,75.2,73.4,94,29.95,-9999.0,East,3.5,-,N/A,,Unknown,100,2013-05-15 22:00:00
8:30 AM,75.2,73.4,94,29.95,-9999.0,SE,5.8,-,N/A,,Unknown,140,2013-05-15 22:30:00
9:00 AM,75,73,92,29.97,,ESE,3.5,,,,,110,2013-05-15 23:00:00
9:00 AM,75.2,73.4,94,29.95,-9999.0,ESE,3.5,-,N/A,,Unknown,110,2013-05-15 23:00:00
9:30 AM,75.2,73.4,94,29.98,-9999.0,SW,6.9,-,N/A,,Unknown,220,2013-05-15 23:30:00
10:00 AM,77.0,75.2,94,29.98,-9999.0,SE,5.8,-,N/A,,Unknown,140,2013-05-16 00:00:00
10:30 AM,77.0,73.4,89,29.95,-9999.0,SE,4.6,-,N/A,,Unknown,130,2013-05-16 00:30:00
11:00 AM,77.0,73.4,89,29.95,-9999.0,ESE,4.6,-,N/A,,Unknown,120,2013-05-16 01:00:00
11:30 AM,77.0,73.4,89,29.95,-9999.0,WSW,5.8,-,N/A,,Unknown,250,2013-05-16 01:30:00
12:00 PM,77,73,83,29.93,,NW,6.9,,,,,320,2013-05-16 02:00:00
12:00 PM,77.0,73.4,89,29.92,-9999.0,NW,6.9,-,N/A,,Unknown,320,2013-05-16 02:00:00
12:30 PM,80.6,73.4,79,29.89,-9999.0,NNW,13.8,-,N/A,,Unknown,340,2013-05-16 02:30:00
1:00 PM,78.8,73.4,83,29.89,-9999.0,NW,9.2,-,N/A,,Unknown,310,2013-05-16 03:00:00
1:30 PM,78.8,71.6,78,29.89,-9999.0,NW,13.8,-,N/A,,Unknown,320,2013-05-16 03:30:00
2:00 PM,77.0,71.6,83,29.89,-9999.0,NNW,16.1,-,N/A,,Unknown,330,2013-05-16 04:00:00
2:30 PM,77.0,73.4,89,29.89,-9999.0,NNW,12.7,-,N/A,,Unknown,330,2013-05-16 04:30:00
3:00 PM,77,73,83,29.89,,NNW,12.7,,,,,330,2013-05-16 05:00:00
3:00 PM,77.0,73.4,89,29.89,-9999.0,NNW,12.7,-,N/A,,Unknown,330,2013-05-16 05:00:00
3:30 PM,77.0,73.4,89,29.89,-9999.0,NW,9.2,-,N/A,,Unknown,320,2013-05-16 05:30:00
3:59 PM,73.4,66.2,78,29.92,-9999.0,SE,18.4,-,N/A,,Unknown,130,2013-05-16 05:59:00
4:04 PM,69.8,66.2,88,29.92,-9999.0,SSE,21.9,34.5,N/A,,Unknown,150,2013-05-16 06:04:00
4:10 PM,69.8,68.0,94,29.92,-9999.0,SSE,34.5,-,N/A,,Unknown,150,2013-05-16 06:10:00
4:30 PM,68.0,68.0,100,29.92,-9999.0,SSE,31.1,-,N/A,,Unknown,150,2013-05-16 06:30:00
5:00 PM,68.0,68.0,100,29.92,-9999.0,SSE,32.2,-,N/A,,Unknown,150,2013-05-16 07:00:00
5:30 PM,-9999,-9999,N/A,29.95,-9999.0,SSE,31.1,-,N/A,,Unknown,150,2013-05-16 07:30:00
6:00 PM,67,,,29.98,,SSE,24.2,,,,,150,2013-05-16 08:00:00
6:00 PM,-9999,-9999,N/A,29.98,-9999.0,SSE,24.2,-,N/A,,Unknown,150,2013-05-16 08:00:00
6:30 PM,-9999,-9999,N/A,29.98,-9999.0,SSE,24.2,-,N/A,,Unknown,150,2013-05-16 08:30:00
7:00 PM,68.0,68.0,100,30.01,-9999.0,SE,23.0,-,N/A,,Unknown,140,2013-05-16 09:00:00
7:30 PM,-9999,-9999,N/A,30.01,-9999.0,SE,26.5,-,N/A,,Unknown,140,2013-05-16 09:30:00
8:00 PM,66.2,66.2,100,30.04,-9999.0,SE,24.2,-,N/A,,Unknown,140,2013-05-16 10:00:00
8:30 PM,66.2,66.2,100,30.04,-9999.0,SE,26.5,-,N/A,,Unknown,140,2013-05-16 10:30:00
9:00 PM,67,66,96,30.04,,SE,24.2,,,,,140,2013-05-16 11:00:00
9:00 PM,68.0,66.2,94,30.04,-9999.0,SE,24.2,-,N/A,,Unknown,140,2013-05-16 11:00:00
9:30 PM,68.0,64.4,88,30.04,-9999.0,SE,24.2,-,N/A,,Unknown,140,2013-05-16 11:30:00
10:00 PM,66.2,64.4,94,30.04,-9999.0,SSE,23.0,-,N/A,,Unknown,150,2013-05-16 12:00:00
10:30 PM,66.2,66.2,100,30.06,-9999.0,SE,21.9,-,N/A,,Unknown,140,2013-05-16 12:30:00
11:00 PM,66.2,64.4,94,30.04,-9999.0,SSE,19.6,-,N/A,,Unknown,160,2013-05-16 13:00:00
11:30 PM,66.2,66.2,100,30.04,-9999.0,SSE,19.6,-,N/A,,Unknown,150,2013-05-16 13:30:00